ラパス の空港の天気 - METARとTAF

エル・アルト国際空港 ( SLLP / LPB ) - ボリビア ラパス
飛行場実況気象(Metar)
観測時間02/17 10:00 BOT (02/17 14:00 UTC)
風向・風速不定 1m/s
視程10km以上
天気現象
少しの雲 雲底高度 210m
全天の4割程度の雲 雲底高度 460m
全天の8割程度の雲 雲底高度 6100m
気温11℃
湿度62%
気圧1039hPa
METARSLLP 171400Z VRB02KT 9999 FEW007 SCT015 BKN200 11/04 Q1039
過去の天気等 Google飛行場航空写真 Wunderground天気予報

過去48時間のMETAR

飛行場予報(TAF)
発表時間: 2/17 06:00 BOT (2/17 10:00 UTC)
予報対象時間: 17日8時 BOT ~ 18日8時 BOT
風向・風速東南東 5m/s
視程10km以上
全天の4割程度の雲 雲底高度 520m
17日14時 BOT ~ 17日17時 BOT に一時的に
風向・風速北東 7m/s
視程8000m
天気現象雷雨
少しの積乱雲 雲底高度 610m
17日23時 BOT ~ 18日1時 BOT に徐々に
18日2時 BOT ~ 18日5時 BOT に 確率 30% で一時的に
天気現象
全天を覆う雲 雲底高度 2130m
TAF SLLP 171000Z 1712/1812 11010KT 9999 SCT017 TX14/1720Z TN04/1810Z
TEMPO 1718/1721 05013KT 8000 TSRA FEW020CB
BECMG 1803/1805 3000E VCFG FEW002
PROB30 TEMPO 1806/1809 RA OVC070